Time;durP1;ratioP1;P1;durP2;ratioP2;P2;SDS_P1;SDS_P2;PMS_P1;PMS_P2;Temp;Humidity;BMP_temperature;BMP_pressure;BME280_temperature;BME280_humidity;BME280_pressure;Samples;Min_cycle;Max_cycle;Signal;HPM_P1;HPM_P2
2023/06/02 00:02:07;;;;;;;;;;;;;;;;;;5075787;28;20287;-81
2023/06/02 00:04:32;;;;;;;;;;;;;;;;;;5104152;28;20366;-80
2023/06/02 00:07:03;;;;;;;;;;;;;;;;;;5094610;28;19916;-80
2023/06/02 00:09:28;;;;;;;;;;;;;;;;;;5093716;28;19916;-81
2023/06/02 00:11:53;;;;;;;;;;;;;;;;;;5075903;28;19961;-81
2023/06/02 00:14:19;;;;;;;;;;;;;;;;;;5094238;28;19923;-81
2023/06/02 00:16:45;;;;;;;;;;;;;;;;;;5085970;28;19912;-81
2023/06/02 00:19:11;;;;;;;;;;;;;;;;;;5085197;28;19920;-81
2023/06/02 00:21:36;;;;;;;;;;;;;;;;;;5086642;28;19934;-81
2023/06/02 00:24:02;;;;;;;;;;;;;;;;;;5079229;28;20356;-81
2023/06/02 00:26:27;;;;;;;;;;;;;;;;;;5094346;28;19955;-81
2023/06/02 00:28:55;;;;;;;;;;;;;;;;;;5091500;28;19943;-81
2023/06/02 00:31:20;;;;;;;;;;;;;;;;;;5086634;28;19912;-81
2023/06/02 00:33:46;;;;;;;;;;;;;;;;;;5093759;28;19960;-81
2023/06/02 00:36:11;;;;;;;;;;;;;;;;;;5084300;28;20060;-81
2023/06/02 00:38:37;;;;;;;;;;;;;;;;;;5076063;28;19927;-81
2023/06/02 00:41:02;;;;;;;;;;;;;;;;;;5093923;28;19923;-81
2023/06/02 00:43:27;;;;;;;;;;;;;;;;;;5093570;28;19912;-81
2023/06/02 00:45:53;;;;;;;;;;;;;;;;;;5084659;28;20007;-81
2023/06/02 00:48:18;;;;;;;;;;;;;;;;;;5079285;28;20438;-81
2023/06/02 00:50:43;;;;;;;;;;;;;;;;;;5082081;28;19966;-81
2023/06/02 00:53:09;;;;;;;;;;;;;;;;;;5099199;28;19912;-81
2023/06/02 00:55:35;;;;;;;;;;;;;;;;;;5075447;28;19920;-81
2023/06/02 00:58:04;;;;;;;;;;;;;;;;;;5093714;28;19919;-81
2023/06/02 01:00:33;;;;;;;;;;;;;;;;;;5080918;28;19924;-80
2023/06/02 01:02:59;;;;;;;;;;;;;;;;;;5084223;28;19912;-80
2023/06/02 01:05:25;;;;;;;;;;;;;;;;;;5093824;28;19962;-80
2023/06/02 01:07:51;;;;;;;;;;;;;;;;;;5079186;28;19916;-80
2023/06/02 01:10:16;;;;;;;;;;;;;;;;;;5093728;28;19923;-81
2023/06/02 01:12:42;;;;;;;;;;;;;;;;;;5089863;28;20302;-81
2023/06/02 01:15:07;;;;;;;;;;;;;;;;;;5091656;28;19923;-81
2023/06/02 01:17:35;;;;;;;;;;;;;;;;;;5093580;28;20002;-81
2023/06/02 01:20:09;;;;;;;;;;;;;;;;;;5063369;28;19970;-81
2023/06/02 01:22:38;;;;;;;;;;;;;;;;;;5090559;28;20330;-81
2023/06/02 01:25:03;;;;;;;;;;;;;;;;;;5055041;28;19966;-81
2023/06/02 01:27:29;;;;;;;;;;;;;;;;;;5072267;28;19916;-81
2023/06/02 01:29:55;;;;;;;;;;;;;;;;;;5092510;28;20676;-81
2023/06/02 01:32:20;;;;;;;;;;;;;;;;;;5067558;28;19952;-81
2023/06/02 01:34:46;;;;;;;;;;;;;;;;;;5077743;28;19962;-81
2023/06/02 01:37:11;;;;;;;;;;;;;;;;;;5075397;28;19927;-82
2023/06/02 01:39:36;;;;;;;;;;;;;;;;;;5092737;28;20008;-82
2023/06/02 01:42:02;;;;;;;;;;;;;;;;;;5095677;28;19970;-83
2023/06/02 01:44:27;;;;;;;;;;;;;;;;;;5075256;28;19959;-82
2023/06/02 01:46:53;;;;;;;;;;;;;;;;;;5092779;28;19916;-83
2023/06/02 01:49:18;;;;;;;;;;;;;;;;;;5075464;28;19923;-82
2023/06/02 01:51:44;;;;;;;;;;;;;;;;;;5093152;28;19920;-82
2023/06/02 01:54:10;;;;;;;;;;;;;;;;;;5092892;28;20010;-82
2023/06/02 01:56:35;;;;;;;;;;;;;;;;;;5079949;28;19920;-82
2023/06/02 01:59:02;;;;;;;;;;;;;;;;;;5073480;28;20391;-83
2023/06/02 02:01:27;;;;;;;;;;;;;;;;;;5091875;28;19973;-82
2023/06/02 02:03:53;;;;;;;;;;;;;;;;;;5082552;28;19912;-82
2023/06/02 02:06:18;;;;;;;;;;;;;;;;;;5096419;28;19916;-82
2023/06/02 02:08:43;;;;;;;;;;;;;;;;;;5096406;28;20371;-82
2023/06/02 02:11:09;;;;;;;;;;;;;;;;;;5096337;28;20367;-82
2023/06/02 02:13:35;;;;;;;;;;;;;;;;;;5096541;28;19924;-82
2023/06/02 02:16:00;;;;;;;;;;;;;;;;;;5095964;28;19969;-82
2023/06/02 02:18:25;;;;;;;;;;;;;;;;;;5084224;28;19912;-81
2023/06/02 02:20:51;;;;;;;;;;;;;;;;;;5095206;28;20011;-81
2023/06/02 02:23:16;;;;;;;;;;;;;;;;;;5087954;28;19985;-82
2023/06/02 02:25:41;;;;;;;;;;;;;;;;;;5096544;28;19916;-84
2023/06/02 02:28:06;;;;;;;;;;;;;;;;;;5096576;28;19912;-81
2023/06/02 02:30:32;;;;;;;;;;;;;;;;;;5065123;28;19923;-81
2023/06/02 02:32:58;;;;;;;;;;;;;;;;;;5088119;28;19916;-83
2023/06/02 02:35:23;;;;;;;;;;;;;;;;;;5091920;28;19920;-81
2023/06/02 02:37:48;;;;;;;;;;;;;;;;;;5083815;28;20269;-81
2023/06/02 02:40:18;;;;;;;;;;;;;;;;;;5091066;28;19920;-81
2023/06/02 02:42:43;;;;;;;;;;;;;;;;;;5082454;28;20023;-83
2023/06/02 02:45:08;;;;;;;;;;;;;;;;;;5090652;28;19916;-84
2023/06/02 02:47:34;;;;;;;;;;;;;;;;;;5086534;28;19961;-83
2023/06/02 02:49:59;;;;;;;;;;;;;;;;;;5086741;28;19959;-83
2023/06/02 02:52:27;;;;;;;;;;;;;;;;;;5090724;28;19912;-83
2023/06/02 02:54:52;;;;;;;;;;;;;;;;;;5089862;28;19916;-83
2023/06/02 02:57:18;;;;;;;;;;;;;;;;;;5085550;28;20387;-83
2023/06/02 02:59:43;;;;;;;;;;;;;;;;;;5061164;28;19976;-83
2023/06/02 03:02:09;;;;;;;;;;;;;;;;;;5077850;28;19912;-84
2023/06/02 03:04:34;;;;;;;;;;;;;;;;;;5084756;28;19923;-83
2023/06/02 03:07:01;;;;;;;;;;;;;;;;;;5077957;28;20284;-83
2023/06/02 03:09:27;;;;;;;;;;;;;;;;;;5095796;28;19939;-84
2023/06/02 03:11:54;;;;;;;;;;;;;;;;;;5067486;28;19916;-83
2023/06/02 03:14:20;;;;;;;;;;;;;;;;;;5095457;28;20014;-83
2023/06/02 03:16:45;;;;;;;;;;;;;;;;;;5081649;28;20325;-83
2023/06/02 03:19:15;;;;;;;;;;;;;;;;;;5080314;28;19971;-83
2023/06/02 03:21:44;;;;;;;;;;;;;;;;;;5086314;28;19916;-83
2023/06/02 03:24:11;;;;;;;;;;;;;;;;;;5096018;28;19950;-84
2023/06/02 03:26:37;;;;;;;;;;;;;;;;;;5076850;28;19967;-84
2023/06/02 03:29:02;;;;;;;;;;;;;;;;;;5096569;28;19916;-84
2023/06/02 03:31:28;;;;;;;;;;;;;;;;;;5068156;28;19912;-84
2023/06/02 03:33:53;;;;;;;;;;;;;;;;;;5097519;28;19916;-84
2023/06/02 03:36:20;;;;;;;;;;;;;;;;;;5081615;28;19918;-83
2023/06/02 03:38:45;;;;;;;;;;;;;;;;;;5088077;28;19931;-82
2023/06/02 03:41:11;;;;;;;;;;;;;;;;;;5081258;28;19958;-81
2023/06/02 03:43:36;;;;;;;;;;;;;;;;;;5086386;28;20694;-81
2023/06/02 03:46:01;;;;;;;;;;;;;;;;;;5076965;28;19911;-81
2023/06/02 03:48:27;;;;;;;;;;;;;;;;;;5094612;28;19938;-81
2023/06/02 03:50:52;;;;;;;;;;;;;;;;;;5081653;28;19919;-81
2023/06/02 03:53:18;;;;;;;;;;;;;;;;;;5094470;28;19962;-82
2023/06/02 03:55:43;;;;;;;;;;;;;;;;;;5088095;28;19924;-82
2023/06/02 03:58:08;;;;;;;;;;;;;;;;;;5086070;28;20340;-82
2023/06/02 04:00:33;;;;;;;;;;;;;;;;;;5085050;28;19993;-82
2023/06/02 04:03:00;;;;;;;;;;;;;;;;;;5084696;28;19917;-82
2023/06/02 04:05:26;;;;;;;;;;;;;;;;;;5075660;28;19919;-83
2023/06/02 04:07:52;;;;;;;;;;;;;;;;;;5075079;28;19916;-83
2023/06/02 04:10:17;;;;;;;;;;;;;;;;;;5067434;28;20294;-82
2023/06/02 04:12:43;;;;;;;;;;;;;;;;;;5060435;28;19968;-83
2023/06/02 04:15:08;;;;;;;;;;;;;;;;;;5081363;28;19962;-82
2023/06/02 04:17:34;;;;;;;;;;;;;;;;;;5093970;28;19926;-83
2023/06/02 04:19:59;;;;;;;;;;;;;;;;;;5087146;28;19916;-82
2023/06/02 04:22:25;;;;;;;;;;;;;;;;;;5083114;28;19923;-83
2023/06/02 04:24:50;;;;;;;;;;;;;;;;;;5083948;28;19912;-82
2023/06/02 04:27:16;;;;;;;;;;;;;;;;;;5076344;28;19916;-82
2023/06/02 04:29:41;;;;;;;;;;;;;;;;;;5076596;28;20397;-84
2023/06/02 04:32:06;;;;;;;;;;;;;;;;;;5088646;28;19923;-84
2023/06/02 04:34:31;;;;;;;;;;;;;;;;;;5076243;28;19923;-82
2023/06/02 04:36:57;;;;;;;;;;;;;;;;;;5075286;28;19955;-82
2023/06/02 04:39:23;;;;;;;;;;;;;;;;;;5075358;28;19920;-82
2023/06/02 04:41:49;;;;;;;;;;;;;;;;;;5081972;28;19916;-81
2023/06/02 04:44:16;;;;;;;;;;;;;;;;;;5074591;28;19919;-82
2023/06/02 04:46:43;;;;;;;;;;;;;;;;;;5059357;28;19923;-77
2023/06/02 04:49:09;;;;;;;;;;;;;;;;;;5077817;28;19912;-79
2023/06/02 04:51:35;;;;;;;;;;;;;;;;;;5076408;28;19920;-76
2023/06/02 04:54:00;;;;;;;;;;;;;;;;;;5090564;28;19912;-77
2023/06/02 04:56:26;;;;;;;;;;;;;;;;;;5060768;28;19966;-78
2023/06/02 04:58:51;;;;;;;;;;;;;;;;;;5068044;28;19920;-78
2023/06/02 05:01:16;;;;;;;;;;;;;;;;;;5075478;28;20293;-78
2023/06/02 05:03:41;;;;;;;;;;;;;;;;;;5052600;28;19965;-75
2023/06/02 05:06:07;;;;;;;;;;;;;;;;;;5091667;28;20305;-76
2023/06/02 05:08:32;;;;;;;;;;;;;;;;;;5091694;28;19954;-78
2023/06/02 05:10:57;;;;;;;;;;;;;;;;;;5076657;28;20390;-78
2023/06/02 05:13:23;;;;;;;;;;;;;;;;;;5075791;28;19998;-75
2023/06/02 05:15:49;;;;;;;;;;;;;;;;;;5074373;28;20359;-78
2023/06/02 05:18:14;;;;;;;;;;;;;;;;;;5057611;28;20002;-74
2023/06/02 05:20:41;;;;;;;;;;;;;;;;;;5074306;28;19927;-78
2023/06/02 05:23:06;;;;;;;;;;;;;;;;;;5071758;28;19912;-78
2023/06/02 05:25:32;;;;;;;;;;;;;;;;;;5060213;28;19916;-78
2023/06/02 05:27:57;;;;;;;;;;;;;;;;;;5071639;28;20326;-78
2023/06/02 05:30:22;;;;;;;;;;;;;;;;;;5074003;28;19916;-78
2023/06/02 05:32:48;;;;;;;;;;;;;;;;;;5092157;28;19916;-78
2023/06/02 05:35:13;;;;;;;;;;;;;;;;;;5063481;28;21143;-78
2023/06/02 05:37:39;;;;;;;;;;;;;;;;;;5077209;28;19998;-77
2023/06/02 05:40:05;;;;;;;;;;;;;;;;;;5079413;28;20010;-78
2023/06/02 05:42:31;;;;;;;;;;;;;;;;;;5077418;28;19958;-78
2023/06/02 05:44:57;;;;;;;;;;;;;;;;;;5059488;28;19916;-78
2023/06/02 05:47:23;;;;;;;;;;;;;;;;;;5086730;28;19918;-78
2023/06/02 05:50:13;;;;;;;;;;;;;;;;;;5092090;28;19943;-76
2023/06/02 05:52:39;;;;;;;;;;;;;;;;;;5094998;28;19916;-76
2023/06/02 05:55:06;;;;;;;;;;;;;;;;;;5076726;28;19926;-76
2023/06/02 05:57:31;;;;;;;;;;;;;;;;;;5089539;28;20365;-78
2023/06/02 05:59:56;;;;;;;;;;;;;;;;;;5086419;28;19928;-78
2023/06/02 06:02:22;;;;;;;;;;;;;;;;;;5083694;28;19916;-78
2023/06/02 06:04:47;;;;;;;;;;;;;;;;;;5091890;28;19967;-77
2023/06/02 06:07:13;;;;;;;;;;;;;;;;;;5076740;28;20374;-77
2023/06/02 06:09:38;;;;;;;;;;;;;;;;;;5094726;28;19965;-77
2023/06/02 06:12:04;;;;;;;;;;;;;;;;;;5094850;28;19943;-77
2023/06/02 06:14:29;;;;;;;;;;;;;;;;;;5076241;28;19920;-78
2023/06/02 06:16:55;;;;;;;;;;;;;;;;;;5076778;28;19916;-78
2023/06/02 06:19:20;;;;;;;;;;;;;;;;;;5080926;28;19923;-78
2023/06/02 06:21:46;;;;;;;;;;;;;;;;;;5081540;28;20275;-79
2023/06/02 06:24:11;;;;;;;;;;;;;;;;;;5087939;28;19916;-79
2023/06/02 06:26:36;;;;;;;;;;;;;;;;;;5080905;28;19959;-77
2023/06/02 06:29:03;;;;;;;;;;;;;;;;;;5094640;28;20001;-77
2023/06/02 06:31:29;;;;;;;;;;;;;;;;;;5076561;28;19916;-80
2023/06/02 06:33:54;;;;;;;;;;;;;;;;;;5076687;28;20423;-78
2023/06/02 06:36:20;;;;;;;;;;;;;;;;;;5094627;28;20041;-77
2023/06/02 06:38:45;;;;;;;;;;;;;;;;;;5083345;28;19984;-79
2023/06/02 06:41:11;;;;;;;;;;;;;;;;;;5082382;28;20090;-78
2023/06/02 06:43:37;;;;;;;;;;;;;;;;;;5076987;28;20305;-78
2023/06/02 06:46:07;;;;;;;;;;;;;;;;;;5081789;28;19962;-77
2023/06/02 06:48:32;;;;;;;;;;;;;;;;;;5094811;28;19916;-78
2023/06/02 06:50:58;;;;;;;;;;;;;;;;;;5092269;28;20407;-78
2023/06/02 06:53:23;;;;;;;;;;;;;;;;;;5094102;28;19974;-76
2023/06/02 06:55:48;;;;;;;;;;;;;;;;;;5094142;28;20038;-78
2023/06/02 06:58:14;;;;;;;;;;;;;;;;;;5080776;28;20382;-79
2023/06/02 07:00:39;;;;;;;;;;;;;;;;;;5093771;28;19977;-78
2023/06/02 07:03:04;;;;;;;;;;;;;;;;;;5094074;28;20054;-76
2023/06/02 07:05:30;;;;;;;;;;;;;;;;;;5078768;28;19916;-78
2023/06/02 07:07:55;;;;;;;;;;;;;;;;;;5077377;28;19937;-78
2023/06/02 07:10:20;;;;;;;;;;;;;;;;;;5077290;28;19916;-77
2023/06/02 07:12:46;;;;;;;;;;;;;;;;;;5093345;28;19912;-77
2023/06/02 07:15:11;;;;;;;;;;;;;;;;;;5093773;28;19986;-77
2023/06/02 07:17:36;;;;;;;;;;;;;;;;;;5077468;28;19912;-78
2023/06/02 07:20:02;;;;;;;;;;;;;;;;;;5092814;28;19927;-77
2023/06/02 07:22:27;;;;;;;;;;;;;;;;;;5075789;28;19954;-77
2023/06/02 07:24:52;;;;;;;;;;;;;;;;;;5093265;28;19920;-77
2023/06/02 07:27:18;;;;;;;;;;;;;;;;;;5093010;28;19912;-77
2023/06/02 07:29:43;;;;;;;;;;;;;;;;;;5093189;28;20410;-78
2023/06/02 07:32:09;;;;;;;;;;;;;;;;;;5077858;28;19912;-78
2023/06/02 07:34:34;;;;;;;;;;;;;;;;;;5080965;28;20015;-78
2023/06/02 07:37:00;;;;;;;;;;;;;;;;;;5077166;28;20260;-77
2023/06/02 07:39:26;;;;;;;;;;;;;;;;;;5093020;28;19930;-77
2023/06/02 07:41:51;;;;;;;;;;;;;;;;;;5074698;28;19916;-78
2023/06/02 07:44:16;;;;;;;;;;;;;;;;;;5092646;28;19916;-78
2023/06/02 07:46:42;;;;;;;;;;;;;;;;;;5077727;28;19912;-79
2023/06/02 07:49:08;;;;;;;;;;;;;;;;;;5092822;28;19916;-77
2023/06/02 07:51:33;;;;;;;;;;;;;;;;;;5092530;28;19916;-77
2023/06/02 07:53:58;;;;;;;;;;;;;;;;;;5078491;28;19920;-77
2023/06/02 07:56:24;;;;;;;;;;;;;;;;;;5091884;28;19931;-77
2023/06/02 07:58:49;;;;;;;;;;;;;;;;;;5084355;28;19922;-76
2023/06/02 08:01:15;;;;;;;;;;;;;;;;;;5092620;28;20023;-76
2023/06/02 08:03:40;;;;;;;;;;;;;;;;;;5092205;28;19916;-79
2023/06/02 08:06:06;;;;;;;;;;;;;;;;;;5092007;28;19959;-77
2023/06/02 08:08:31;;;;;;;;;;;;;;;;;;5098716;28;20345;-77
2023/06/02 08:10:57;;;;;;;;;;;;;;;;;;5095354;28;19913;-78
2023/06/02 08:13:22;;;;;;;;;;;;;;;;;;5085563;28;19916;-78
2023/06/02 08:15:47;;;;;;;;;;;;;;;;;;5091784;28;20383;-78
2023/06/02 08:18:14;;;;;;;;;;;;;;;;;;5091820;28;19916;-78
2023/06/02 08:20:39;;;;;;;;;;;;;;;;;;5076042;28;19919;-78
2023/06/02 08:23:04;;;;;;;;;;;;;;;;;;5092110;28;19927;-77
2023/06/02 08:25:30;;;;;;;;;;;;;;;;;;5091457;28;19912;-78
2023/06/02 08:27:56;;;;;;;;;;;;;;;;;;5091590;28;19916;-77
2023/06/02 08:30:21;;;;;;;;;;;;;;;;;;5071665;28;19912;-78
2023/06/02 08:32:48;;;;;;;;;;;;;;;;;;5091274;28;20408;-78
2023/06/02 08:35:13;;;;;;;;;;;;;;;;;;5091440;28;19916;-76
2023/06/02 08:37:38;;;;;;;;;;;;;;;;;;5089870;28;19965;-78
2023/06/02 08:40:05;;;;;;;;;;;;;;;;;;5088072;28;19989;-78
2023/06/02 08:42:33;;;;;;;;;;;;;;;;;;5090952;28;20220;-79
2023/06/02 08:44:58;;;;;;;;;;;;;;;;;;5091818;28;19998;-77
2023/06/02 08:47:23;;;;;;;;;;;;;;;;;;5092253;28;20470;-78
2023/06/02 08:49:49;;;;;;;;;;;;;;;;;;5083646;28;19926;-78
2023/06/02 08:52:14;;;;;;;;;;;;;;;;;;5073799;28;19920;-77
2023/06/02 08:54:40;;;;;;;;;;;;;;;;;;5073441;28;19912;-77
2023/06/02 08:57:05;;;;;;;;;;;;;;;;;;5091248;28;19928;-79
2023/06/02 08:59:30;;;;;;;;;;;;;;;;;;5091493;28;19924;-77
2023/06/02 09:01:56;;;;;;;;;;;;;;;;;;5082854;28;19981;-79
2023/06/02 09:04:21;;;;;;;;;;;;;;;;;;5091732;28;20040;-77
2023/06/02 09:06:49;;;;;;;;;;;;;;;;;;5091199;28;20332;-78
2023/06/02 09:09:14;;;;;;;;;;;;;;;;;;5091307;28;19916;-77
2023/06/02 09:11:39;;;;;;;;;;;;;;;;;;5091251;28;20440;-77
2023/06/02 09:14:05;;;;;;;;;;;;;;;;;;5084360;28;19916;-78
2023/06/02 09:16:30;;;;;;;;;;;;;;;;;;5083332;28;19938;-77
2023/06/02 09:18:56;;;;;;;;;;;;;;;;;;5090394;28;19956;-78
2023/06/02 09:21:21;;;;;;;;;;;;;;;;;;5091488;28;19986;-77
2023/06/02 09:23:48;;;;;;;;;;;;;;;;;;5072680;28;19978;-78
2023/06/02 09:26:13;;;;;;;;;;;;;;;;;;5091447;28;19946;-76
2023/06/02 09:28:38;;;;;;;;;;;;;;;;;;5090648;28;19998;-79
2023/06/02 09:31:04;;;;;;;;;;;;;;;;;;5076790;28;19920;-77
2023/06/02 09:33:29;;;;;;;;;;;;;;;;;;5077968;28;20354;-77
2023/06/02 09:35:54;;;;;;;;;;;;;;;;;;5090774;28;19916;-79
2023/06/02 09:38:20;;;;;;;;;;;;;;;;;;5090662;28;19916;-77
2023/06/02 09:40:45;;;;;;;;;;;;;;;;;;5076024;28;19924;-79
2023/06/02 09:43:11;;;;;;;;;;;;;;;;;;5077444;28;19962;-78
2023/06/02 09:45:36;;;;;;;;;;;;;;;;;;5091013;28;19922;-78
2023/06/02 09:48:01;;;;;;;;;;;;;;;;;;5090692;28;20011;-78
2023/06/02 09:50:27;;;;;;;;;;;;;;;;;;5075475;28;19916;-78
2023/06/02 09:52:52;;;;;;;;;;;;;;;;;;5090251;28;19916;-78
2023/06/02 09:55:19;;;;;;;;;;;;;;;;;;5101969;28;19920;-78
2023/06/02 09:57:45;;;;;;;;;;;;;;;;;;5090817;28;20326;-77
2023/06/02 10:00:11;;;;;;;;;;;;;;;;;;5090774;28;19938;-76
2023/06/02 10:02:37;;;;;;;;;;;;;;;;;;5077000;28;19912;-75
2023/06/02 10:05:03;;;;;;;;;;;;;;;;;;5090601;28;20049;-78
2023/06/02 10:07:28;;;;;;;;;;;;;;;;;;5086295;28;20344;-77
2023/06/02 10:09:53;;;;;;;;;;;;;;;;;;5090748;28;19927;-79
2023/06/02 10:12:19;;;;;;;;;;;;;;;;;;5090822;28;19912;-76
2023/06/02 10:14:44;;;;;;;;;;;;;;;;;;5090671;28;19916;-76
2023/06/02 10:17:09;;;;;;;;;;;;;;;;;;5086172;28;19959;-76
2023/06/02 10:19:35;;;;;;;;;;;;;;;;;;5073155;28;19934;-77
2023/06/02 10:22:00;;;;;;;;;;;;;;;;;;5090192;28;20272;-76
2023/06/02 10:24:26;;;;;;;;;;;;;;;;;;5072521;28;19916;-77
2023/06/02 10:26:51;;;;;;;;;;;;;;;;;;5093588;28;19919;-79
2023/06/02 10:29:16;;;;;;;;;;;;;;;;;;5094453;28;20351;-78
2023/06/02 10:31:42;;;;;;;;;;;;;;;;;;5077981;28;19919;-78
2023/06/02 10:34:07;;;;;;;;;;;;;;;;;;5078047;28;20015;-78
2023/06/02 10:36:32;;;;;;;;;;;;;;;;;;5083185;28;20347;-79
2023/06/02 10:38:57;;;;;;;;;;;;;;;;;;5094085;28;19920;-78
2023/06/02 10:41:23;;;;;;;;;;;;;;;;;;5075993;28;19957;-78
2023/06/02 10:43:49;;;;;;;;;;;;;;;;;;5076007;28;19920;-78
2023/06/02 10:46:15;;;;;;;;;;;;;;;;;;5076938;28;19973;-78
2023/06/02 10:48:40;;;;;;;;;;;;;;;;;;5094189;28;20061;-78
2023/06/02 10:51:05;;;;;;;;;;;;;;;;;;5093660;28;20010;-78
2023/06/02 10:53:31;;;;;;;;;;;;;;;;;;5075411;28;19916;-78
2023/06/02 10:55:56;;;;;;;;;;;;;;;;;;5093494;28;19920;-78
2023/06/02 10:58:23;;;;;;;;;;;;;;;;;;5093884;28;20382;-77
2023/06/02 11:00:52;;;;;;;;;;;;;;;;;;5088927;28;20019;-78
2023/06/02 11:03:17;;;;;;;;;;;;;;;;;;5079341;28;19916;-78
2023/06/02 11:05:43;;;;;;;;;;;;;;;;;;5093299;28;20030;-78
2023/06/02 11:08:08;;;;;;;;;;;;;;;;;;5093265;28;19916;-78
2023/06/02 11:10:33;;;;;;;;;;;;;;;;;;5093161;28;19916;-76
2023/06/02 11:12:59;;;;;;;;;;;;;;;;;;5086095;28;20372;-76
2023/06/02 11:15:24;;;;;;;;;;;;;;;;;;5092845;28;19977;-78
2023/06/02 11:17:49;;;;;;;;;;;;;;;;;;5093231;28;20386;-78
2023/06/02 11:20:15;;;;;;;;;;;;;;;;;;5092570;28;19941;-78
2023/06/02 11:22:41;;;;;;;;;;;;;;;;;;5077368;28;19955;-78
2023/06/02 11:25:06;;;;;;;;;;;;;;;;;;5092739;28;19952;-77
2023/06/02 11:27:31;;;;;;;;;;;;;;;;;;5093361;28;20444;-78
2023/06/02 11:29:57;;;;;;;;;;;;;;;;;;5092919;28;19951;-79
2023/06/02 11:32:22;;;;;;;;;;;;;;;;;;5093170;28;19969;-77
2023/06/02 11:34:47;;;;;;;;;;;;;;;;;;5093122;28;19912;-76
2023/06/02 11:37:13;;;;;;;;;;;;;;;;;;5092100;28;20418;-78
2023/06/02 11:39:38;;;;;;;;;;;;;;;;;;5081899;28;20267;-78
2023/06/02 11:42:03;;;;;;;;;;;;;;;;;;5074951;28;20325;-79
2023/06/02 11:44:29;;;;;;;;;;;;;;;;;;5092729;28;19919;-79
2023/06/02 11:46:54;;;;;;;;;;;;;;;;;;5092207;28;19920;-78
2023/06/02 11:49:19;;;;;;;;;;;;;;;;;;5092594;28;19938;-77
2023/06/02 11:51:45;;;;;;;;;;;;;;;;;;5092347;28;19963;-77
2023/06/02 11:54:10;;;;;;;;;;;;;;;;;;5092635;28;19912;-77
2023/06/02 11:56:36;;;;;;;;;;;;;;;;;;5091977;28;19935;-76
2023/06/02 11:59:01;;;;;;;;;;;;;;;;;;5092126;28;19918;-78
2023/06/02 12:01:26;;;;;;;;;;;;;;;;;;5085747;28;20387;-76
2023/06/02 12:03:51;;;;;;;;;;;;;;;;;;5092307;28;19912;-76
2023/06/02 12:06:17;;;;;;;;;;;;;;;;;;5069775;28;19969;-77
2023/06/02 12:08:42;;;;;;;;;;;;;;;;;;5092357;28;19912;-78
2023/06/02 12:11:08;;;;;;;;;;;;;;;;;;5092133;28;20375;-78
2023/06/02 12:13:33;;;;;;;;;;;;;;;;;;5092379;28;19950;-78
2023/06/02 12:15:59;;;;;;;;;;;;;;;;;;5092127;28;19915;-76
2023/06/02 12:18:24;;;;;;;;;;;;;;;;;;5091972;28;19918;-76
2023/06/02 12:20:49;;;;;;;;;;;;;;;;;;5091339;28;19969;-77
2023/06/02 12:23:15;;;;;;;;;;;;;;;;;;5091836;28;19912;-79
2023/06/02 12:25:40;;;;;;;;;;;;;;;;;;5091752;28;20088;-77
2023/06/02 12:28:05;;;;;;;;;;;;;;;;;;5091558;28;19961;-77
2023/06/02 12:30:31;;;;;;;;;;;;;;;;;;5091079;28;19958;-76
2023/06/02 12:32:56;;;;;;;;;;;;;;;;;;5091597;28;19947;-79
2023/06/02 12:35:21;;;;;;;;;;;;;;;;;;5090744;28;20013;-78
2023/06/02 12:37:47;;;;;;;;;;;;;;;;;;5079566;28;20021;-78
2023/06/02 12:40:12;;;;;;;;;;;;;;;;;;5089999;28;19927;-78
2023/06/02 12:42:37;;;;;;;;;;;;;;;;;;5091914;28;20010;-78
2023/06/02 12:45:03;;;;;;;;;;;;;;;;;;5091352;28;19920;-78
2023/06/02 12:47:28;;;;;;;;;;;;;;;;;;5082970;28;20378;-78
2023/06/02 12:49:53;;;;;;;;;;;;;;;;;;5090730;28;19920;-77
2023/06/02 12:52:19;;;;;;;;;;;;;;;;;;5091377;28;20000;-79
2023/06/02 12:54:45;;;;;;;;;;;;;;;;;;5083650;28;19916;-79
2023/06/02 12:57:10;;;;;;;;;;;;;;;;;;5091670;28;19916;-77
2023/06/02 12:59:35;;;;;;;;;;;;;;;;;;5091023;28;19964;-76
2023/06/02 13:02:01;;;;;;;;;;;;;;;;;;5091125;28;19954;-78
2023/06/02 13:04:27;;;;;;;;;;;;;;;;;;5090905;28;19962;-79
2023/06/02 13:06:52;;;;;;;;;;;;;;;;;;5090712;28;19912;-78
2023/06/02 13:09:17;;;;;;;;;;;;;;;;;;5090773;28;19923;-78
2023/06/02 13:11:43;;;;;;;;;;;;;;;;;;5091414;28;19950;-78
2023/06/02 13:14:08;;;;;;;;;;;;;;;;;;5091125;28;19923;-78
2023/06/02 13:16:33;;;;;;;;;;;;;;;;;;5076039;28;19916;-78
2023/06/02 13:18:59;;;;;;;;;;;;;;;;;;5090584;28;20014;-78
2023/06/02 13:21:25;;;;;;;;;;;;;;;;;;5074290;28;19923;-78
2023/06/02 13:23:50;;;;;;;;;;;;;;;;;;5091115;28;20045;-77
2023/06/02 13:26:15;;;;;;;;;;;;;;;;;;5071752;28;20014;-76
2023/06/02 13:28:40;;;;;;;;;;;;;;;;;;5090926;28;20516;-79
2023/06/02 13:31:06;;;;;;;;;;;;;;;;;;5090746;28;19912;-77
2023/06/02 13:33:31;;;;;;;;;;;;;;;;;;5091232;28;20382;-78
2023/06/02 13:35:56;;;;;;;;;;;;;;;;;;5077592;28;20329;-75
2023/06/02 13:38:22;;;;;;;;;;;;;;;;;;5091282;28;19921;-76
2023/06/02 13:40:48;;;;;;;;;;;;;;;;;;5090908;28;19965;-78
2023/06/02 13:43:14;;;;;;;;;;;;;;;;;;5090483;28;20463;-78
2023/06/02 13:45:39;;;;;;;;;;;;;;;;;;5072780;28;19912;-78
2023/06/02 13:48:06;;;;;;;;;;;;;;;;;;5083683;28;20065;-78
2023/06/02 13:50:32;;;;;;;;;;;;;;;;;;5090953;28;19961;-78
2023/06/02 13:52:57;;;;;;;;;;;;;;;;;;5090725;28;20393;-75
2023/06/02 13:55:22;;;;;;;;;;;;;;;;;;5090667;28;20329;-76
2023/06/02 13:57:47;;;;;;;;;;;;;;;;;;5090515;28;19916;-76
2023/06/02 14:00:13;;;;;;;;;;;;;;;;;;5091670;28;19927;-76
2023/06/02 14:03:03;;;;;;;;;;;;;;;;;;5094609;28;20014;-79
2023/06/02 14:05:28;;;;;;;;;;;;;;;;;;5094547;28;20353;-76
2023/06/02 14:07:54;;;;;;;;;;;;;;;;;;5094086;28;20450;-76
2023/06/02 14:10:21;;;;;;;;;;;;;;;;;;5091373;28;19951;-76
2023/06/02 14:12:46;;;;;;;;;;;;;;;;;;5089438;28;20337;-76
2023/06/02 14:15:11;;;;;;;;;;;;;;;;;;5094491;28;19911;-77
2023/06/02 14:17:37;;;;;;;;;;;;;;;;;;5095430;28;19916;-77
2023/06/02 14:20:02;;;;;;;;;;;;;;;;;;5093858;28;20011;-76
2023/06/02 14:22:28;;;;;;;;;;;;;;;;;;5094351;28;19962;-78
2023/06/02 14:24:53;;;;;;;;;;;;;;;;;;5085154;28;19916;-78
2023/06/02 14:27:18;;;;;;;;;;;;;;;;;;5093801;28;20003;-78
2023/06/02 14:29:44;;;;;;;;;;;;;;;;;;5085349;28;20057;-77
2023/06/02 14:32:09;;;;;;;;;;;;;;;;;;5076328;28;20440;-77
2023/06/02 14:34:34;;;;;;;;;;;;;;;;;;5094207;28;20416;-78
2023/06/02 14:37:00;;;;;;;;;;;;;;;;;;5094120;28;19916;-77
2023/06/02 14:39:25;;;;;;;;;;;;;;;;;;5063231;28;19920;-78
2023/06/02 14:41:51;;;;;;;;;;;;;;;;;;5093795;28;19916;-77
2023/06/02 14:44:16;;;;;;;;;;;;;;;;;;5094207;28;20279;-77
2023/06/02 14:46:42;;;;;;;;;;;;;;;;;;5093669;28;19997;-77
2023/06/02 14:49:07;;;;;;;;;;;;;;;;;;5093801;28;19966;-77
2023/06/02 14:51:32;;;;;;;;;;;;;;;;;;5093310;28;19931;-78
2023/06/02 14:53:58;;;;;;;;;;;;;;;;;;5094067;28;19912;-77
2023/06/02 14:56:24;;;;;;;;;;;;;;;;;;5075655;28;20373;-78
2023/06/02 14:58:49;;;;;;;;;;;;;;;;;;5077790;28;20475;-77
2023/06/02 15:01:15;;;;;;;;;;;;;;;;;;5093193;28;20019;-78
2023/06/02 15:03:41;;;;;;;;;;;;;;;;;;5094116;28;19919;-78
2023/06/02 15:06:06;;;;;;;;;;;;;;;;;;5093606;28;20031;-78
2023/06/02 15:08:32;;;;;;;;;;;;;;;;;;5093621;28;20383;-75
2023/06/02 15:10:57;;;;;;;;;;;;;;;;;;5093266;28;19916;-80
2023/06/02 15:13:22;;;;;;;;;;;;;;;;;;5075015;28;20402;-78
2023/06/02 15:15:48;;;;;;;;;;;;;;;;;;5093136;28;19923;-78
2023/06/02 15:18:13;;;;;;;;;;;;;;;;;;5093355;28;19916;-78
2023/06/02 15:20:40;;;;;;;;;;;;;;;;;;5094430;28;20560;-77
2023/06/02 15:23:05;;;;;;;;;;;;;;;;;;5103839;28;19912;-78
2023/06/02 15:25:30;;;;;;;;;;;;;;;;;;5093024;28;19923;-77
2023/06/02 15:27:56;;;;;;;;;;;;;;;;;;5093267;28;19913;-78
2023/06/02 15:30:21;;;;;;;;;;;;;;;;;;5092600;28;20295;-78
2023/06/02 15:32:46;;;;;;;;;;;;;;;;;;5093372;28;19912;-79
2023/06/02 15:35:12;;;;;;;;;;;;;;;;;;5092753;28;19959;-79
2023/06/02 15:37:37;;;;;;;;;;;;;;;;;;5093131;28;19916;-78
2023/06/02 15:40:03;;;;;;;;;;;;;;;;;;5092881;28;19932;-78
2023/06/02 15:42:28;;;;;;;;;;;;;;;;;;5065440;28;19913;-79
2023/06/02 15:44:54;;;;;;;;;;;;;;;;;;5087879;28;19965;-77
2023/06/02 15:47:19;;;;;;;;;;;;;;;;;;5090598;28;19919;-77
2023/06/02 15:49:45;;;;;;;;;;;;;;;;;;5092110;28;19916;-77
2023/06/02 15:52:10;;;;;;;;;;;;;;;;;;5077611;28;19912;-77
2023/06/02 15:54:36;;;;;;;;;;;;;;;;;;5078813;28;20276;-78
2023/06/02 15:57:01;;;;;;;;;;;;;;;;;;5092414;28;19920;-77
2023/06/02 15:59:26;;;;;;;;;;;;;;;;;;5092378;28;19924;-77
2023/06/02 16:01:53;;;;;;;;;;;;;;;;;;5092721;28;19912;-77
2023/06/02 16:04:19;;;;;;;;;;;;;;;;;;5091050;28;19962;-76
2023/06/02 16:06:44;;;;;;;;;;;;;;;;;;5092797;28;19916;-78
2023/06/02 16:09:09;;;;;;;;;;;;;;;;;;5091632;28;19923;-78
2023/06/02 16:11:35;;;;;;;;;;;;;;;;;;5091998;28;19998;-77
2023/06/02 16:14:00;;;;;;;;;;;;;;;;;;5092118;28;19916;-80
2023/06/02 16:16:25;;;;;;;;;;;;;;;;;;5092103;28;19935;-78
2023/06/02 16:18:51;;;;;;;;;;;;;;;;;;5087810;28;19916;-78
2023/06/02 16:21:16;;;;;;;;;;;;;;;;;;5074453;28;20294;-78
2023/06/02 16:23:41;;;;;;;;;;;;;;;;;;5083225;28;20412;-78
2023/06/02 16:26:07;;;;;;;;;;;;;;;;;;5074166;28;19912;-78
2023/06/02 16:28:32;;;;;;;;;;;;;;;;;;5091859;28;19916;-78
2023/06/02 16:30:58;;;;;;;;;;;;;;;;;;5091839;28;20286;-78
2023/06/02 16:33:23;;;;;;;;;;;;;;;;;;5079384;28;19981;-78
2023/06/02 16:35:48;;;;;;;;;;;;;;;;;;5091878;28;20374;-76